Time;durP1;ratioP1;P1;durP2;ratioP2;P2;SDS_P1;SDS_P2;PMS_P1;PMS_P2;Temp;Humidity;BMP_temperature;BMP_pressure;BME280_temperature;BME280_humidity;BME280_pressure;Samples;Min_cycle;Max_cycle;Signal;HPM_P1;HPM_P2
2023/03/05 00:00:04;;;;;;;29.05;16.92;;;6.00;99.90;;;;;;4952223;28;20039;-75
2023/03/05 00:02:31;;;;;;;28.00;16.23;;;5.70;99.90;;;;;;4961469;28;20023;-77
2023/03/05 00:04:56;;;;;;;29.95;15.73;;;5.80;99.90;;;;;;4955811;28;20891;-77
2023/03/05 00:07:22;;;;;;;29.73;17.15;;;5.90;99.90;;;;;;4952201;28;20031;-77
2023/03/05 00:09:48;;;;;;;32.00;15.98;;;5.90;99.90;;;;;;4964446;28;20405;-77
2023/03/05 00:12:14;;;;;;;31.55;15.90;;;5.80;99.90;;;;;;4960635;28;20086;-77
2023/03/05 00:14:39;;;;;;;27.25;15.43;;;5.90;99.90;;;;;;4952388;28;20042;-77
2023/03/05 00:17:05;;;;;;;30.40;16.38;;;5.90;99.90;;;;;;4961951;28;20068;-76
2023/03/05 00:19:30;;;;;;;31.17;18.42;;;5.90;99.90;;;;;;4972820;28;20027;-76
2023/03/05 00:21:56;;;;;;;34.05;19.60;;;6.10;99.90;;;;;;4966101;28;20035;-76
2023/03/05 00:24:22;;;;;;;34.28;18.17;;;6.50;99.90;;;;;;4972204;28;20045;-76
2023/03/05 00:26:48;;;;;;;40.05;23.00;;;6.50;99.90;;;;;;4957506;28;20034;-76
2023/03/05 00:29:17;;;;;;;42.50;20.25;;;6.40;99.90;;;;;;4959971;28;20039;-76
2023/03/05 00:31:44;;;;;;;30.15;17.40;;;6.30;99.90;;;;;;4960854;28;20489;-76
2023/03/05 00:34:13;;;;;;;29.17;17.60;;;6.30;99.90;;;;;;4960124;28;20030;-76
2023/03/05 00:36:40;;;;;;;30.90;19.20;;;6.10;99.90;;;;;;4959177;28;20035;-76
2023/03/05 00:39:06;;;;;;;30.20;16.23;;;6.10;99.90;;;;;;4952322;28;20067;-77
2023/03/05 00:41:32;;;;;;;28.67;17.65;;;5.90;99.90;;;;;;4961005;28;20054;-76
2023/03/05 00:43:58;;;;;;;33.65;17.10;;;5.90;99.90;;;;;;4972266;28;20033;-77
2023/03/05 00:46:26;;;;;;;32.42;18.05;;;6.20;99.90;;;;;;4961235;28;20039;-76
2023/03/05 00:48:52;;;;;;;28.55;18.40;;;6.00;99.90;;;;;;4953048;28;20020;-78
2023/03/05 00:51:18;;;;;;;30.98;18.95;;;6.00;99.90;;;;;;4963180;28;20038;-76
2023/03/05 00:53:44;;;;;;;29.27;16.40;;;6.00;99.90;;;;;;4953448;28;20035;-76
2023/03/05 00:56:10;;;;;;;27.27;15.55;;;6.10;99.90;;;;;;4959030;28;20142;-77
2023/03/05 00:58:36;;;;;;;28.42;15.48;;;5.70;99.90;;;;;;4965134;28;20467;-76
2023/03/05 01:01:02;;;;;;;28.08;14.85;;;5.60;99.90;;;;;;4963888;28;20073;-76
2023/03/05 01:03:29;;;;;;;30.88;17.45;;;5.70;99.90;;;;;;4971031;28;20441;-76
2023/03/05 01:05:56;;;;;;;29.25;16.00;;;5.80;99.90;;;;;;4963982;28;20490;-76
2023/03/05 01:08:22;;;;;;;31.33;17.05;;;5.80;99.90;;;;;;4959189;28;20062;-77
2023/03/05 01:10:48;;;;;;;35.55;18.00;;;5.90;99.90;;;;;;4960894;28;20046;-76
2023/03/05 01:13:14;;;;;;;29.60;15.60;;;5.80;99.90;;;;;;4963292;28;20032;-76
2023/03/05 01:15:39;;;;;;;24.77;14.68;;;5.60;99.90;;;;;;4963650;28;20030;-76
2023/03/05 01:18:05;;;;;;;31.48;16.50;;;5.60;99.90;;;;;;4959883;28;20031;-76
2023/03/05 01:20:31;;;;;;;32.58;18.08;;;5.60;99.90;;;;;;4969391;28;20026;-76
2023/03/05 01:22:58;;;;;;;28.15;16.83;;;5.70;99.90;;;;;;4956930;28;20113;-76
2023/03/05 01:25:24;;;;;;;28.80;16.50;;;5.80;99.90;;;;;;4958551;28;20101;-75
2023/03/05 01:27:49;;;;;;;27.05;15.75;;;5.70;99.90;;;;;;4964854;28;20397;-76
2023/03/05 01:30:15;;;;;;;34.47;18.45;;;5.80;99.90;;;;;;4963865;28;20027;-76
2023/03/05 01:32:41;;;;;;;32.17;17.35;;;5.70;99.90;;;;;;4957969;28;20398;-76
2023/03/05 01:35:16;;;;;;;29.00;16.48;;;5.80;99.90;;;;;;4958973;28;20107;-76
2023/03/05 01:37:42;;;;;;;26.67;15.90;;;5.70;99.90;;;;;;4962074;28;20047;-76
2023/03/05 01:40:09;;;;;;;31.98;18.48;;;5.80;99.90;;;;;;4963017;28;20061;-76
2023/03/05 01:42:35;;;;;;;28.63;16.35;;;5.90;99.90;;;;;;4966789;28;20042;-76
2023/03/05 01:45:13;;;;;;;27.00;14.45;;;5.60;99.90;;;;;;4957322;28;20039;-76
2023/03/05 01:47:39;;;;;;;27.45;15.55;;;5.50;99.90;;;;;;4963362;28;20081;-76
2023/03/05 01:50:09;;;;;;;26.17;13.82;;;5.70;99.90;;;;;;4963485;28;20109;-76
2023/03/05 01:52:37;;;;;;;27.77;15.05;;;5.30;99.90;;;;;;4962898;28;20038;-76
2023/03/05 01:55:07;;;;;;;33.88;17.17;;;5.30;99.90;;;;;;4967087;28;20078;-76
2023/03/05 01:57:37;;;;;;;29.00;15.85;;;5.20;99.90;;;;;;4953739;28;20129;-76
2023/03/05 02:00:09;;;;;;;31.73;16.85;;;5.20;99.90;;;;;;4961521;28;20034;-76
2023/03/05 02:02:35;;;;;;;29.55;15.93;;;5.20;99.90;;;;;;4954205;28;20027;-76
2023/03/05 02:05:12;;;;;;;30.33;17.23;;;5.10;99.90;;;;;;4969238;28;20516;-75
2023/03/05 02:07:41;;;;;;;30.05;13.48;;;5.10;99.90;;;;;;4955026;28;20030;-76
2023/03/05 02:10:18;;;;;;;24.77;13.13;;;5.60;99.90;;;;;;4951745;28;20027;-77
2023/03/05 02:12:44;;;;;;;21.88;12.68;;;5.60;99.40;;;;;;4958538;28;20448;-76
2023/03/05 02:15:11;;;;;;;21.27;12.38;;;5.30;99.40;;;;;;4953864;28;20035;-76
2023/03/05 02:17:37;;;;;;;26.25;15.00;;;5.30;99.20;;;;;;4962589;28;20031;-76
2023/03/05 02:20:09;;;;;;;22.08;12.50;;;5.60;99.40;;;;;;4954881;28;20050;-76
2023/03/05 02:22:35;;;;;;;29.13;14.50;;;5.60;99.20;;;;;;4954117;28;20095;-76
2023/03/05 02:25:00;;;;;;;24.85;13.93;;;5.60;99.20;;;;;;4954477;28;20031;-76
2023/03/05 02:27:33;;;;;;;26.25;12.82;;;5.50;99.20;;;;;;4962407;28;20043;-77
2023/03/05 02:30:00;;;;;;;24.88;14.13;;;5.40;99.60;;;;;;4963431;28;20055;-76
2023/03/05 02:32:26;;;;;;;25.08;13.63;;;5.30;99.50;;;;;;4958712;28;20035;-76
2023/03/05 02:34:52;;;;;;;25.23;13.50;;;5.30;99.40;;;;;;4957825;28;20523;-76
2023/03/05 02:37:18;;;;;;;21.70;13.70;;;5.30;99.30;;;;;;4964911;28;20513;-76
2023/03/05 02:39:43;;;;;;;26.17;15.23;;;5.10;99.70;;;;;;4957805;28;20031;-76
2023/03/05 02:42:09;;;;;;;26.90;14.93;;;5.10;99.90;;;;;;4963996;28;20030;-77
2023/03/05 02:44:35;;;;;;;30.00;17.05;;;5.30;99.90;;;;;;4958780;28;20034;-77
2023/03/05 02:47:01;;;;;;;32.08;18.20;;;5.30;99.90;;;;;;4965873;28;20367;-76
2023/03/05 02:49:27;;;;;;;25.25;14.73;;;5.50;99.90;;;;;;4960381;28;20107;-76
2023/03/05 02:51:53;;;;;;;23.15;13.52;;;5.50;99.70;;;;;;4962805;28;20138;-76
2023/03/05 02:54:19;;;;;;;22.73;13.30;;;5.40;99.50;;;;;;4965819;28;20564;-76
2023/03/05 02:56:44;;;;;;;22.55;12.13;;;5.20;99.50;;;;;;4967226;28;20134;-76
2023/03/05 02:59:10;;;;;;;21.27;12.88;;;5.00;99.60;;;;;;4957466;28;20066;-76
2023/03/05 03:01:36;;;;;;;22.60;12.13;;;4.90;99.80;;;;;;4951995;28;20027;-76
2023/03/05 03:04:02;;;;;;;25.10;12.35;;;4.90;99.50;;;;;;4958792;28;20370;-76
2023/03/05 03:06:27;;;;;;;24.92;12.10;;;4.60;99.80;;;;;;4958133;28;20038;-77
2023/03/05 03:08:53;;;;;;;22.65;10.95;;;4.60;99.80;;;;;;4956731;28;20654;-76
2023/03/05 03:11:20;;;;;;;18.02;9.75;;;4.60;99.70;;;;;;4966466;28;20027;-76
2023/03/05 03:13:46;;;;;;;18.50;10.65;;;4.70;99.10;;;;;;4956574;28;20434;-76
2023/03/05 03:16:13;;;;;;;18.70;9.20;;;4.90;98.40;;;;;;4958225;28;20047;-76
2023/03/05 03:18:39;;;;;;;19.42;9.98;;;4.80;98.60;;;;;;4955796;28;20118;-76
2023/03/05 03:21:05;;;;;;;18.02;9.65;;;4.50;98.90;;;;;;4951637;28;20130;-76
2023/03/05 03:23:32;;;;;;;18.90;9.80;;;4.50;99.00;;;;;;4970218;28;20058;-76
2023/03/05 03:25:58;;;;;;;20.45;10.05;;;4.50;99.00;;;;;;4969791;28;20113;-76
2023/03/05 03:28:24;;;;;;;19.45;11.05;;;4.50;98.90;;;;;;4961737;28;20138;-76
2023/03/05 03:30:50;;;;;;;19.40;9.10;;;4.50;99.00;;;;;;4964863;28;20473;-76
2023/03/05 03:33:17;;;;;;;16.58;9.65;;;4.50;99.00;;;;;;4957905;28;20397;-76
2023/03/05 03:35:46;;;;;;;18.08;10.23;;;4.50;99.30;;;;;;4956519;28;20035;-76
2023/03/05 03:38:12;;;;;;;18.25;9.93;;;4.50;99.30;;;;;;4962946;28;20034;-76
2023/03/05 03:40:40;;;;;;;19.63;10.27;;;4.50;99.40;;;;;;4958912;28;20485;-76
2023/03/05 03:43:06;;;;;;;16.85;9.73;;;4.30;99.70;;;;;;4961323;28;20125;-77
2023/03/05 03:45:32;;;;;;;21.42;11.23;;;4.30;99.80;;;;;;4953557;28;20541;-76
2023/03/05 03:47:57;;;;;;;17.70;9.73;;;4.20;99.90;;;;;;4956519;28;20027;-76
2023/03/05 03:50:24;;;;;;;17.55;8.43;;;4.30;99.60;;;;;;4961009;28;20093;-76
2023/03/05 03:52:50;;;;;;;16.05;9.52;;;4.40;98.90;;;;;;4968310;28;20792;-76
2023/03/05 03:55:16;;;;;;;17.00;9.23;;;4.30;98.80;;;;;;4955723;28;20031;-76
2023/03/05 03:57:42;;;;;;;16.38;8.73;;;4.30;98.80;;;;;;4950203;28;20371;-76
2023/03/05 04:00:10;;;;;;;20.25;8.70;;;4.20;99.30;;;;;;4959349;28;20098;-76
2023/03/05 04:02:36;;;;;;;21.67;9.98;;;4.20;98.90;;;;;;4960506;28;20039;-77
2023/03/05 04:05:02;;;;;;;17.52;9.65;;;4.20;99.20;;;;;;4952437;28;20043;-77
2023/03/05 04:07:28;;;;;;;15.20;9.05;;;4.20;99.20;;;;;;4954204;28;20549;-77
2023/03/05 04:09:54;;;;;;;17.52;9.18;;;4.10;99.10;;;;;;4966011;28;20122;-77
2023/03/05 04:12:20;;;;;;;17.10;9.10;;;4.10;99.00;;;;;;4959050;28;20105;-77
2023/03/05 04:14:47;;;;;;;12.82;8.38;;;4.10;98.50;;;;;;4959773;28;20035;-77
2023/03/05 04:17:14;;;;;;;14.98;8.57;;;4.20;98.30;;;;;;4953930;28;20035;-77
2023/03/05 04:19:40;;;;;;;15.57;8.35;;;4.30;98.30;;;;;;4960251;28;20338;-76
2023/03/05 04:22:13;;;;;;;16.40;8.02;;;4.00;98.30;;;;;;4959623;28;20035;-77
2023/03/05 04:24:40;;;;;;;17.10;8.32;;;3.90;98.40;;;;;;4960598;28;20042;-77
2023/03/05 04:27:06;;;;;;;23.70;8.40;;;3.90;98.50;;;;;;4961115;28;20456;-77
2023/03/05 04:29:32;;;;;;;15.23;8.80;;;4.10;98.20;;;;;;4957065;28;20115;-77
2023/03/05 04:31:58;;;;;;;13.20;8.05;;;4.00;98.10;;;;;;4955397;28;20031;-77
2023/03/05 04:34:24;;;;;;;17.67;8.65;;;4.10;98.00;;;;;;4962384;28;20037;-78
2023/03/05 04:36:50;;;;;;;13.70;7.07;;;3.90;98.20;;;;;;4950043;28;20390;-77
2023/03/05 04:39:16;;;;;;;14.43;7.28;;;3.90;98.10;;;;;;4949260;28;20027;-77
2023/03/05 04:41:41;;;;;;;13.65;8.20;;;4.00;98.30;;;;;;4951199;28;20039;-77
2023/03/05 04:44:07;;;;;;;16.13;7.95;;;3.90;98.20;;;;;;4960634;28;20027;-77
2023/03/05 04:46:33;;;;;;;13.68;7.65;;;4.00;98.30;;;;;;4957927;28;20686;-77
2023/03/05 04:48:58;;;;;;;13.85;7.38;;;3.90;98.20;;;;;;4965003;28;20035;-77
2023/03/05 04:51:24;;;;;;;15.70;7.07;;;3.90;98.20;;;;;;4954490;28;20035;-77
2023/03/05 04:53:50;;;;;;;13.57;7.40;;;3.80;98.20;;;;;;4958169;28;20031;-77
2023/03/05 04:56:15;;;;;;;14.65;9.02;;;3.70;98.20;;;;;;4960001;28;20488;-77
2023/03/05 04:58:41;;;;;;;13.85;7.80;;;3.80;98.20;;;;;;4957059;28;20498;-76
2023/03/05 05:01:07;;;;;;;13.43;7.43;;;3.80;98.10;;;;;;4956266;28;20038;-77
2023/03/05 05:03:33;;;;;;;14.43;7.90;;;3.80;98.10;;;;;;4952571;28;20679;-79
2023/03/05 05:06:00;;;;;;;14.60;8.32;;;3.80;98.10;;;;;;4951915;28;20389;-76
2023/03/05 05:08:26;;;;;;;14.70;6.97;;;3.90;98.50;;;;;;4961543;28;20031;-80
2023/03/05 05:11:00;;;;;;;14.65;7.60;;;3.90;98.30;;;;;;4961307;28;20023;-77
2023/03/05 05:13:26;;;;;;;13.67;6.97;;;3.90;98.10;;;;;;4956360;28;20122;-78
2023/03/05 05:15:52;;;;;;;12.32;7.07;;;3.70;98.00;;;;;;4952254;28;20400;-80
2023/03/05 05:18:17;;;;;;;15.00;6.68;;;3.50;98.50;;;;;;4964040;28;20114;-77
2023/03/05 05:20:43;;;;;;;12.55;6.38;;;3.70;98.60;;;;;;4951679;28;20046;-77
2023/03/05 05:23:09;;;;;;;10.98;4.90;;;3.60;98.50;;;;;;4955730;28;20732;-77
2023/03/05 05:25:34;;;;;;;11.05;5.20;;;3.50;97.00;;;;;;4952103;28;20055;-77
2023/03/05 05:28:00;;;;;;;11.07;5.45;;;3.40;96.60;;;;;;4951052;28;20038;-76
2023/03/05 05:30:26;;;;;;;10.85;5.82;;;3.60;96.60;;;;;;4965058;28;20563;-76
2023/03/05 05:32:51;;;;;;;15.07;4.85;;;3.80;96.30;;;;;;4958302;28;20031;-77
2023/03/05 05:35:17;;;;;;;11.60;4.57;;;3.60;96.20;;;;;;4963227;28;20513;-76
2023/03/05 05:37:43;;;;;;;10.13;4.80;;;3.80;95.90;;;;;;4952672;28;20127;-77
2023/03/05 05:40:09;;;;;;;11.20;4.90;;;4.20;95.40;;;;;;4947763;28;20025;-76
2023/03/05 05:42:35;;;;;;;10.32;5.13;;;4.10;95.40;;;;;;4957263;28;20430;-77
2023/03/05 05:45:01;;;;;;;12.68;5.85;;;3.80;95.80;;;;;;4955128;28;20090;-76
2023/03/05 05:47:28;;;;;;;9.50;4.60;;;4.00;95.90;;;;;;4954845;28;20023;-76
2023/03/05 05:49:55;;;;;;;12.85;5.97;;;3.50;96.30;;;;;;4950967;28;20444;-76
2023/03/05 05:52:21;;;;;;;10.77;5.72;;;3.40;96.50;;;;;;4951813;28;20027;-76
2023/03/05 05:54:47;;;;;;;11.85;6.07;;;3.50;96.70;;;;;;4959653;28;20358;-76
2023/03/05 05:57:13;;;;;;;9.10;5.53;;;3.40;96.70;;;;;;4957792;28;20101;-77
2023/03/05 05:59:39;;;;;;;13.30;5.32;;;3.60;96.40;;;;;;4949856;28;20471;-76
2023/03/05 06:02:06;;;;;;;9.85;5.20;;;3.30;96.70;;;;;;4954960;28;20023;-77
2023/03/05 06:04:33;;;;;;;12.50;6.78;;;3.20;96.80;;;;;;4954718;28;20027;-77
2023/03/05 06:06:59;;;;;;;14.25;5.78;;;3.30;97.00;;;;;;4950811;28;20074;-77
2023/03/05 06:09:25;;;;;;;12.38;6.63;;;3.60;96.80;;;;;;4956204;28;20482;-77
2023/03/05 06:11:50;;;;;;;10.25;5.78;;;3.60;96.60;;;;;;4952262;28;20066;-80
2023/03/05 06:14:16;;;;;;;13.95;6.28;;;3.60;96.50;;;;;;4952350;28;20058;-80
2023/03/05 06:16:42;;;;;;;12.80;7.07;;;4.00;95.90;;;;;;4953509;28;20031;-77
2023/03/05 06:19:12;;;;;;;10.27;5.32;;;4.00;95.90;;;;;;4948703;28;20982;-77
2023/03/05 06:21:37;;;;;;;12.63;6.53;;;3.90;96.10;;;;;;4952139;28;20042;-76
2023/03/05 06:24:03;;;;;;;12.80;6.50;;;3.90;96.10;;;;;;4952983;28;20047;-77
2023/03/05 06:26:29;;;;;;;13.23;5.72;;;3.90;96.10;;;;;;4951885;28;20061;-78
2023/03/05 06:28:55;;;;;;;11.05;5.95;;;3.80;96.60;;;;;;4951197;28;20157;-77
2023/03/05 06:31:25;;;;;;;11.70;6.50;;;3.70;96.80;;;;;;4946330;28;20601;-78
2023/03/05 06:33:57;;;;;;;10.77;5.38;;;3.60;97.10;;;;;;4953265;28;20125;-77
2023/03/05 06:36:24;;;;;;;9.85;5.30;;;3.40;97.90;;;;;;4950363;28;20489;-77
2023/03/05 06:38:51;;;;;;;10.48;4.85;;;3.50;96.90;;;;;;4965741;28;20035;-76
2023/03/05 06:41:19;;;;;;;10.93;5.28;;;3.70;96.60;;;;;;4947483;28;20039;-75
2023/03/05 06:43:46;;;;;;;8.13;4.57;;;4.00;95.60;;;;;;4958333;28;20026;-77
2023/03/05 06:46:16;;;;;;;10.07;4.93;;;4.10;95.40;;;;;;4958848;28;20050;-76
2023/03/05 06:48:42;;;;;;;14.75;5.72;;;4.30;95.40;;;;;;4948957;28;20047;-76
2023/03/05 06:51:17;;;;;;;11.93;5.30;;;4.20;95.60;;;;;;4947006;28;20042;-79
2023/03/05 06:53:44;;;;;;;15.63;6.00;;;4.30;95.90;;;;;;4952215;28;20108;-75
2023/03/05 06:56:10;;;;;;;13.52;6.57;;;3.80;96.80;;;;;;4949158;28;20059;-78
2023/03/05 06:58:35;;;;;;;10.10;5.63;;;3.80;97.10;;;;;;4946379;28;20150;-76
2023/03/05 07:01:04;;;;;;;10.02;5.90;;;3.70;97.00;;;;;;4953397;28;20055;-75
2023/03/05 07:03:29;;;;;;;17.50;9.68;;;3.70;97.00;;;;;;4946250;28;20035;-76
2023/03/05 07:05:55;;;;;;;17.48;8.32;;;3.80;97.60;;;;;;4946935;28;20544;-76
2023/03/05 07:08:21;;;;;;;18.92;9.82;;;3.90;97.70;;;;;;4948170;28;20418;-76
2023/03/05 07:10:46;;;;;;;17.92;9.25;;;3.90;97.40;;;;;;4945314;28;20376;-76
2023/03/05 07:13:12;;;;;;;71.55;29.95;;;3.90;97.80;;;;;;4944512;28;20050;-76
2023/03/05 07:15:39;;;;;;;16.75;8.85;;;3.90;97.70;;;;;;4951222;28;20042;-75
2023/03/05 07:18:05;;;;;;;12.73;6.20;;;3.80;98.00;;;;;;4944107;28;20031;-75
2023/03/05 07:20:34;;;;;;;8.95;5.60;;;3.80;97.70;;;;;;4949959;28;20435;-76
2023/03/05 07:23:00;;;;;;;12.93;6.45;;;3.70;98.30;;;;;;4948384;28;20484;-75
2023/03/05 07:25:25;;;;;;;12.02;6.07;;;3.60;97.80;;;;;;4953790;28;20031;-76
2023/03/05 07:27:51;;;;;;;10.40;5.45;;;3.20;97.80;;;;;;4950455;28;20057;-75
2023/03/05 07:30:17;;;;;;;15.88;6.78;;;3.30;98.20;;;;;;4946987;28;20034;-75
2023/03/05 07:32:43;;;;;;;13.98;5.30;;;3.50;98.20;;;;;;4957689;28;20081;-76
2023/03/05 07:35:09;;;;;;;15.10;7.50;;;3.60;98.80;;;;;;4949099;28;20070;-75
2023/03/05 07:37:34;;;;;;;16.70;7.20;;;3.70;98.10;;;;;;4944675;28;20478;-75
2023/03/05 07:40:00;;;;;;;14.77;6.45;;;3.80;97.80;;;;;;4947253;28;20121;-74
2023/03/05 07:42:26;;;;;;;10.00;5.43;;;3.80;97.90;;;;;;4950616;28;20026;-77
2023/03/05 07:44:52;;;;;;;11.25;5.50;;;4.00;97.40;;;;;;4953900;28;20405;-76
2023/03/05 07:47:18;;;;;;;11.55;6.20;;;4.10;97.20;;;;;;4959369;28;20456;-76
2023/03/05 07:49:43;;;;;;;14.70;6.88;;;4.10;97.50;;;;;;4958850;28;20045;-76
2023/03/05 07:52:09;;;;;;;12.75;5.28;;;4.10;96.90;;;;;;4959451;28;20402;-77
2023/03/05 07:54:38;;;;;;;13.02;4.80;;;4.10;97.00;;;;;;4953707;29;20023;-76
2023/03/05 07:57:05;;;;;;;11.02;5.53;;;4.10;97.00;;;;;;4968906;28;20066;-76
2023/03/05 07:59:31;;;;;;;13.93;5.57;;;4.20;96.90;;;;;;4971778;28;20125;-77
2023/03/05 08:01:57;;;;;;;10.65;5.20;;;4.40;96.40;;;;;;4969206;28;20401;-77
2023/03/05 08:04:23;;;;;;;10.60;4.32;;;4.50;96.10;;;;;;4971463;28;20066;-77
2023/03/05 08:06:49;;;;;;;10.70;4.72;;;4.70;95.90;;;;;;4969141;28;20046;-77
2023/03/05 08:09:15;;;;;;;8.52;4.53;;;4.80;95.50;;;;;;4970673;28;20046;-76
2023/03/05 08:11:41;;;;;;;9.88;4.60;;;4.80;95.10;;;;;;4971537;28;20113;-77
2023/03/05 08:14:07;;;;;;;9.00;4.40;;;4.90;94.90;;;;;;4971595;28;20102;-76
2023/03/05 08:16:33;;;;;;;11.25;5.43;;;4.80;94.30;;;;;;4969718;28;20133;-76
2023/03/05 08:18:59;;;;;;;10.27;4.22;;;4.90;94.40;;;;;;4971972;28;20038;-77
2023/03/05 08:21:32;;;;;;;9.55;4.03;;;4.90;94.30;;;;;;4972063;28;20030;-78
2023/03/05 08:23:59;;;;;;;8.65;4.63;;;5.00;94.30;;;;;;4971103;28;20099;-78
2023/03/05 08:26:27;;;;;;;6.15;3.42;;;5.00;94.10;;;;;;4968579;28;20170;-74
2023/03/05 08:28:53;;;;;;;8.93;4.35;;;5.10;94.00;;;;;;4969146;28;20208;-74
2023/03/05 08:31:21;;;;;;;6.30;3.65;;;5.10;94.00;;;;;;4968039;28;20038;-74
2023/03/05 08:33:52;;;;;;;7.40;3.80;;;5.10;93.80;;;;;;4971546;28;20038;-74
2023/03/05 08:36:17;;;;;;;9.27;3.95;;;5.10;94.00;;;;;;4971426;28;20042;-74
2023/03/05 08:38:45;;;;;;;7.70;3.33;;;5.10;94.30;;;;;;4966587;28;20037;-74
2023/03/05 08:41:12;;;;;;;11.25;4.63;;;5.20;93.80;;;;;;4966720;28;20085;-74
2023/03/05 08:43:38;;;;;;;7.95;3.70;;;5.40;93.90;;;;;;4967894;28;20037;-74
2023/03/05 08:46:04;;;;;;;8.52;3.58;;;5.50;93.80;;;;;;4965194;28;20031;-75
2023/03/05 08:48:31;;;;;;;6.60;3.42;;;5.50;93.10;;;;;;4970895;28;20111;-74
2023/03/05 08:51:03;;;;;;;7.57;2.88;;;5.60;92.90;;;;;;4971045;28;20030;-75
2023/03/05 08:53:28;;;;;;;9.85;3.83;;;5.60;92.20;;;;;;4967220;28;20089;-76
2023/03/05 08:55:55;;;;;;;7.95;3.10;;;5.70;92.50;;;;;;4970992;28;20030;-74
2023/03/05 08:58:21;;;;;;;7.45;3.17;;;5.70;92.30;;;;;;4968345;28;20665;-74
2023/03/05 09:00:47;;;;;;;6.38;3.05;;;5.80;92.10;;;;;;4969013;28;20078;-74
2023/03/05 09:03:13;;;;;;;5.60;2.80;;;5.90;92.50;;;;;;4969494;28;20034;-74
2023/03/05 09:05:38;;;;;;;7.95;3.10;;;6.00;91.80;;;;;;4970860;28;20042;-74
2023/03/05 09:08:04;;;;;;;9.98;3.58;;;6.00;91.90;;;;;;4966456;28;20034;-74
2023/03/05 09:10:29;;;;;;;9.27;4.47;;;6.10;91.80;;;;;;4967163;28;20030;-74
2023/03/05 09:12:55;;;;;;;10.32;3.65;;;6.20;91.90;;;;;;4968068;28;20062;-74
2023/03/05 09:15:21;;;;;;;7.85;2.75;;;6.20;92.20;;;;;;4968784;28;20038;-74
2023/03/05 09:17:46;;;;;;;7.43;3.30;;;6.20;91.90;;;;;;4966180;28;20041;-74
2023/03/05 09:20:13;;;;;;;6.50;3.17;;;6.30;92.00;;;;;;4968375;28;20628;-74
2023/03/05 09:22:40;;;;;;;6.70;3.28;;;6.40;92.10;;;;;;4969634;28;20038;-76
2023/03/05 09:25:06;;;;;;;10.77;3.92;;;6.50;91.90;;;;;;4970579;28;20359;-74
2023/03/05 09:27:36;;;;;;;8.55;4.75;;;6.60;91.80;;;;;;4968840;28;20041;-74
2023/03/05 09:30:04;;;;;;;8.63;4.55;;;6.60;91.70;;;;;;4969650;28;20413;-75
2023/03/05 09:32:29;;;;;;;10.18;5.53;;;6.60;91.80;;;;;;4968914;28;20106;-75
2023/03/05 09:34:56;;;;;;;14.52;5.80;;;6.70;91.90;;;;;;4970544;28;20452;-74
2023/03/05 09:37:22;;;;;;;8.32;3.72;;;6.80;92.10;;;;;;4970011;28;20121;-73
2023/03/05 09:39:47;;;;;;;9.15;4.25;;;6.90;91.70;;;;;;4969999;28;20118;-74
2023/03/05 09:42:35;;;;;;;9.10;4.50;;;7.00;92.30;;;;;;4967897;28;20027;-77
2023/03/05 09:45:16;;;;;;;8.82;4.28;;;7.10;91.70;;;;;;4956619;28;20031;-74
2023/03/05 09:47:45;;;;;;;12.85;6.13;;;7.10;91.30;;;;;;4955408;28;20023;-75
2023/03/05 09:50:41;;;;;;;11.77;4.68;;;7.10;91.90;;;;;;4970924;28;20105;-75
2023/03/05 09:53:30;;;;;;;12.05;4.22;;;7.20;91.00;;;;;;4953516;28;20027;-75
2023/03/05 09:56:01;;;;;;;7.85;3.63;;;7.20;91.10;;;;;;4971236;28;20105;-74
2023/03/05 09:58:34;;;;;;;10.02;4.97;;;7.60;91.30;;;;;;4969752;28;20050;-74
2023/03/05 10:01:04;;;;;;;12.18;6.45;;;7.40;90.20;;;;;;4969669;28;20039;-74
2023/03/05 10:03:48;;;;;;;9.63;4.75;;;7.80;90.80;;;;;;4967122;28;20101;-75
2023/03/05 10:06:30;;;;;;;11.82;9.25;;;7.90;90.50;;;;;;4968340;28;20198;-74
2023/03/05 10:09:10;;;;;;;13.30;4.85;;;8.00;89.60;;;;;;4970349;28;20482;-76
2023/03/05 10:11:35;;;;;;;7.68;4.90;;;8.00;89.60;;;;;;4976349;28;20042;-76
2023/03/05 10:14:02;;;;;;;14.15;5.55;;;8.00;89.00;;;;;;4962298;28;20035;-76
2023/03/05 10:16:46;;;;;;;32.65;5.25;;;8.00;90.00;;;;;;4980169;28;20114;-78
2023/03/05 10:19:54;;;;;;;9.52;4.90;;;8.10;88.50;;;;;;4977168;28;20555;-75
2023/03/05 10:22:25;;;;;;;12.90;5.47;;;8.20;87.70;;;;;;4963798;28;20046;-76
2023/03/05 10:25:06;;;;;;;9.45;4.72;;;8.40;87.90;;;;;;4980406;28;20109;-75
2023/03/05 10:27:31;;;;;;;13.07;9.05;;;8.50;87.90;;;;;;4978496;28;20038;-75
2023/03/05 10:30:20;;;;;;;12.02;7.28;;;8.60;86.80;;;;;;4975442;28;20031;-74
2023/03/05 10:32:55;;;;;;;16.10;7.25;;;8.80;87.60;;;;;;4971493;28;20262;-74
2023/03/05 10:35:20;;;;;;;;;;;8.80;87.70;;;;;;4978763;28;20064;-74
2023/03/05 10:37:56;;;;;;;10.45;4.72;;;8.90;88.00;;;;;;4968229;28;19972;-74
2023/03/05 10:40:37;;;;;;;8.82;3.40;;;9.10;86.80;;;;;;4967515;28;20041;-77
2023/03/05 10:43:06;;;;;;;8.57;4.25;;;9.00;86.00;;;;;;4967904;28;20038;-77
2023/03/05 10:45:52;;;;;;;7.35;3.47;;;9.30;86.50;;;;;;4952499;28;20097;-77
2023/03/05 10:48:39;;;;;;;7.93;3.47;;;9.40;85.30;;;;;;4951395;28;20065;-75
2023/03/05 10:51:32;;;;;;;10.40;4.25;;;9.40;84.60;;;;;;4965606;28;20045;-77
2023/03/05 10:54:29;;;;;;;11.05;4.18;;;9.60;85.10;;;;;;4962391;28;20034;-76
2023/03/05 10:57:14;;;;;;;7.63;4.00;;;9.80;84.50;;;;;;4963192;28;20110;-74
2023/03/05 10:59:50;;;;;;;9.70;5.68;;;10.00;86.00;;;;;;4967699;28;20054;-77
2023/03/05 11:02:17;;;;;;;8.40;4.13;;;10.00;83.90;;;;;;4969290;28;20035;-79
2023/03/05 11:04:46;;;;;;;7.85;3.92;;;9.90;83.40;;;;;;4968926;28;20046;-75
2023/03/05 11:07:14;;;;;;;8.38;4.63;;;10.20;84.20;;;;;;4968857;28;20047;-77
2023/03/05 11:09:41;;;;;;;8.85;4.30;;;10.50;84.10;;;;;;4970279;28;20109;-78
2023/03/05 11:12:16;;;;;;;7.05;4.10;;;10.90;82.90;;;;;;4968430;28;20034;-81
2023/03/05 11:15:05;;;;;;;8.48;3.75;;;10.90;83.00;;;;;;4968945;28;20058;-75
2023/03/05 11:17:33;;;;;;;10.00;4.35;;;10.70;81.40;;;;;;4967065;28;20039;-75
2023/03/05 11:20:35;;;;;;;9.52;3.38;;;10.80;82.80;;;;;;4965794;28;20030;-76
2023/03/05 11:23:14;;;;;;;9.75;4.20;;;10.90;82.30;;;;;;4888157;29;20045;-75
2023/03/05 11:25:53;;;;;;;6.20;2.92;;;10.80;82.50;;;;;;4942656;28;20043;-73
2023/03/05 11:28:22;;;;;;;7.07;2.72;;;11.00;81.80;;;;;;4953527;28;20042;-73
2023/03/05 11:31:14;;;;;;;11.63;4.57;;;11.20;86.80;;;;;;4966380;28;20045;-74
2023/03/05 11:33:55;;;;;;;8.55;4.68;;;11.40;80.40;;;;;;4956340;28;20047;-76
2023/03/05 11:36:29;;;;;;;8.55;3.78;;;11.30;80.20;;;;;;4968729;28;20085;-75
2023/03/05 11:38:58;;;;;;;24.50;3.97;;;11.30;80.40;;;;;;4968945;28;20599;-73
2023/03/05 11:41:31;;;;;;;8.02;3.22;;;11.40;80.60;;;;;;4966560;28;20516;-73
2023/03/05 11:44:02;;;;;;;9.50;3.78;;;11.90;85.40;;;;;;4963684;28;20020;-74
2023/03/05 11:46:29;;;;;;;9.73;3.83;;;12.50;80.60;;;;;;4958974;28;20082;-74
2023/03/05 11:48:57;;;;;;;6.15;3.47;;;12.20;79.00;;;;;;4967556;28;20039;-75
2023/03/05 11:51:35;;;;;;;7.07;3.25;;;12.00;77.90;;;;;;4948763;28;20493;-76
2023/03/05 11:54:06;;;;;;;6.88;3.13;;;12.10;77.90;;;;;;4961853;28;20062;-77
2023/03/05 11:56:40;;;;;;;7.13;3.58;;;12.20;76.40;;;;;;4960931;28;20435;-76
2023/03/05 11:59:16;;;;;;;6.18;2.97;;;12.40;75.60;;;;;;4957704;28;20050;-75
2023/03/05 12:01:53;;;;;;;5.63;2.85;;;12.40;74.30;;;;;;4962654;28;20058;-78
2023/03/05 12:04:20;;;;;;;7.15;2.92;;;12.50;74.70;;;;;;4960710;28;20034;-75
2023/03/05 12:06:56;;;;;;;4.95;2.80;;;12.30;73.60;;;;;;4965070;28;20031;-76
2023/03/05 12:09:44;;;;;;;5.97;2.38;;;12.30;75.80;;;;;;4963412;28;20033;-74
2023/03/05 12:12:31;;;;;;;5.90;2.65;;;12.60;74.10;;;;;;4961494;28;20030;-75
2023/03/05 12:15:24;;;;;;;6.38;2.95;;;12.60;74.90;;;;;;4953276;28;20471;-74
2023/03/05 12:17:57;;;;;;;6.63;3.28;;;12.60;74.60;;;;;;4953067;28;20038;-74
2023/03/05 12:20:35;;;;;;;5.72;2.70;;;12.70;74.10;;;;;;4964156;28;20117;-74
2023/03/05 12:23:00;;;;;;;7.18;3.15;;;12.80;75.30;;;;;;4961743;28;20134;-74
2023/03/05 12:25:50;;;;;;;6.78;3.13;;;12.80;74.60;;;;;;4949344;28;20118;-73
2023/03/05 12:28:41;;;;;;;8.70;3.45;;;12.60;73.70;;;;;;4965084;28;20093;-71
2023/03/05 12:31:07;;;;;;;10.07;3.70;;;12.90;75.60;;;;;;4955230;28;20106;-71
2023/03/05 12:33:42;;;;;;;6.28;3.38;;;13.00;74.90;;;;;;4958050;28;20480;-72
2023/03/05 12:36:19;;;;;;;8.68;4.38;;;13.20;75.40;;;;;;4967136;28;20054;-73
2023/03/05 12:38:53;;;;;;;9.30;4.80;;;13.40;76.40;;;;;;4967599;28;20386;-73
2023/03/05 12:41:22;;;;;;;12.88;5.65;;;13.30;75.60;;;;;;4966372;28;20066;-73
2023/03/05 12:44:06;;;;;;;9.57;5.18;;;13.40;76.60;;;;;;4962956;28;20042;-72
2023/03/05 12:46:36;;;;;;;17.00;7.07;;;13.30;76.50;;;;;;4958121;28;20042;-72
2023/03/05 12:49:25;;;;;;;13.27;6.95;;;13.80;78.70;;;;;;4951604;28;20113;-73
2023/03/05 12:52:00;;;;;;;31.40;15.98;;;14.00;78.10;;;;;;4959606;28;20023;-72
2023/03/05 12:54:31;;;;;;;;;;;14.10;78.90;;;;;;4965166;28;20138;-72